createdAt,value
2023-05-21T00:01:16.409Z,2.28
2023-05-21T00:03:46.141Z,3.63
2023-05-21T00:06:16.036Z,4.85
2023-05-21T00:08:42.975Z,6.70
2023-05-21T00:11:09.603Z,3.42
2023-05-21T00:13:35.954Z,1.90
2023-05-21T00:16:02.355Z,2.08
2023-05-21T00:18:29.130Z,3.08
2023-05-21T00:20:55.509Z,2.83
2023-05-21T00:23:21.864Z,3.38
2023-05-21T00:25:48.253Z,3.20
2023-05-21T00:28:14.602Z,2.90
2023-05-21T00:30:42.999Z,4.60
2023-05-21T00:33:13.884Z,3.03
2023-05-21T00:35:40.309Z,2.53
2023-05-21T00:38:07.477Z,2.28
2023-05-21T00:40:34.791Z,6.10
2023-05-21T00:43:01.250Z,3.00
2023-05-21T00:45:27.547Z,2.47
2023-05-21T00:47:56.818Z,3.65
2023-05-21T00:50:23.588Z,2.75
2023-05-21T00:52:49.998Z,3.13
2023-05-21T00:55:16.402Z,3.97
2023-05-21T00:57:42.850Z,2.47
2023-05-21T01:00:12.447Z,4.55
2023-05-21T01:02:39.065Z,2.22
2023-05-21T01:05:06.648Z,3.65
2023-05-21T01:07:34.780Z,3.90
2023-05-21T01:10:02.456Z,2.20
2023-05-21T01:12:29.671Z,3.55
2023-05-21T01:14:57.643Z,4.97
2023-05-21T01:17:24.688Z,6.88
2023-05-21T01:19:52.589Z,3.63
2023-05-21T01:22:21.157Z,5.10
2023-05-21T01:24:49.869Z,4.07
2023-05-21T01:27:16.478Z,2.97
2023-05-21T01:29:42.953Z,3.35
2023-05-21T01:32:18.219Z,2.67
2023-05-21T01:34:55.547Z,3.03
2023-05-21T01:37:24.786Z,5.10
2023-05-21T01:39:54.479Z,4.32
2023-05-21T01:42:22.560Z,3.75
2023-05-21T01:44:50.380Z,3.90
2023-05-21T01:47:18.100Z,4.18
2023-05-21T01:49:45.031Z,4.47
2023-05-21T01:52:12.918Z,2.42
2023-05-21T01:54:39.261Z,4.95
2023-05-21T01:57:05.680Z,4.57
2023-05-21T01:59:32.017Z,5.97
2023-05-21T02:01:58.508Z,3.65
2023-05-21T02:04:24.893Z,3.30
2023-05-21T02:06:51.943Z,2.88
2023-05-21T02:09:18.325Z,2.85
2023-05-21T02:11:44.729Z,5.38
2023-05-21T02:14:13.928Z,4.25
2023-05-21T02:16:41.756Z,3.45
2023-05-21T02:19:10.465Z,4.20
2023-05-21T02:21:36.905Z,3.15
2023-05-21T02:24:03.321Z,3.30
2023-05-21T02:26:29.665Z,3.13
2023-05-21T02:28:56.004Z,5.95
2023-05-21T02:31:22.338Z,4.47
2023-05-21T02:33:48.813Z,3.25
2023-05-21T02:36:15.479Z,5.10
2023-05-21T02:38:45.301Z,2.55
2023-05-21T02:41:11.686Z,4.50
2023-05-21T02:43:38.051Z,4.05
2023-05-21T02:46:04.928Z,3.63
2023-05-21T02:48:31.294Z,3.28
2023-05-21T02:50:58.286Z,3.67
2023-05-21T02:53:24.799Z,5.63
2023-05-21T02:55:51.243Z,3.55
2023-05-21T02:58:17.569Z,3.35
2023-05-21T03:00:43.957Z,4.90
2023-05-21T03:03:11.741Z,3.85
2023-05-21T03:05:38.326Z,3.28
2023-05-21T03:08:05.057Z,6.47
2023-05-21T03:10:31.541Z,3.95
2023-05-21T03:12:58.016Z,4.25
2023-05-21T03:15:24.531Z,3.95
2023-05-21T03:17:51.114Z,4.63
2023-05-21T03:20:18.893Z,8.70
2023-05-21T03:22:45.693Z,6.18
2023-05-21T03:25:12.612Z,4.15
2023-05-21T03:27:39.297Z,4.97
2023-05-21T03:30:06.841Z,4.53
2023-05-21T03:32:37.860Z,4.68
2023-05-21T03:35:05.113Z,8.95
2023-05-21T03:37:31.380Z,4.40
2023-05-21T03:39:57.861Z,5.07
2023-05-21T03:42:24.330Z,6.53
2023-05-21T03:44:50.786Z,4.13
2023-05-21T03:47:17.147Z,5.00
2023-05-21T03:49:43.458Z,3.38
2023-05-21T03:52:09.798Z,5.22
2023-05-21T03:54:36.132Z,3.95
2023-05-21T03:57:02.468Z,4.53
2023-05-21T03:59:28.914Z,3.13
2023-05-21T04:01:55.279Z,3.38
2023-05-21T04:04:21.716Z,4.75
2023-05-21T04:06:48.260Z,3.92
2023-05-21T04:09:14.666Z,4.65
2023-05-21T04:11:41.027Z,3.20
2023-05-21T04:14:07.483Z,5.50
2023-05-21T04:16:35.453Z,5.20
2023-05-21T04:19:02.013Z,3.40
2023-05-21T04:21:28.377Z,6.70
2023-05-21T04:23:57.677Z,2.80
2023-05-21T04:26:25.209Z,3.75
2023-05-21T04:28:51.537Z,6.00
2023-05-21T04:31:17.919Z,3.47
2023-05-21T04:33:45.825Z,4.35
2023-05-21T04:36:12.313Z,3.05
2023-05-21T04:38:40.760Z,6.65
2023-05-21T04:41:07.213Z,4.38
2023-05-21T04:43:33.624Z,6.93
2023-05-21T04:46:00.070Z,3.28
2023-05-21T04:48:29.470Z,3.60
2023-05-21T04:50:56.785Z,4.55
2023-05-21T04:53:23.876Z,5.65
2023-05-21T04:55:50.237Z,3.80
2023-05-21T04:58:18.360Z,4.80
2023-05-21T05:00:46.692Z,6.35
2023-05-21T05:03:13.431Z,3.60
2023-05-21T05:05:39.898Z,4.07
2023-05-21T05:08:06.832Z,3.45
2023-05-21T05:10:33.148Z,4.75
2023-05-21T05:12:59.696Z,5.28
2023-05-21T05:15:26.514Z,3.55
2023-05-21T05:17:53.002Z,4.15
2023-05-21T05:20:19.357Z,4.32
2023-05-21T05:22:45.693Z,5.88
2023-05-21T05:25:12.110Z,5.15
2023-05-21T05:27:38.689Z,3.40
2023-05-21T05:30:05.585Z,4.78
2023-05-21T05:32:31.957Z,5.63
2023-05-21T05:34:59.134Z,6.40
2023-05-21T05:37:26.755Z,6.03
2023-05-21T05:39:53.115Z,3.85
2023-05-21T05:42:19.411Z,7.50
2023-05-21T05:44:45.701Z,6.97
2023-05-21T05:47:11.978Z,3.30
2023-05-21T05:49:38.290Z,4.55
2023-05-21T05:52:04.821Z,4.30
2023-05-21T05:54:31.161Z,4.10
2023-05-21T05:56:57.633Z,4.22
2023-05-21T05:59:23.908Z,5.53
2023-05-21T06:01:50.346Z,4.85
2023-05-21T06:04:16.681Z,4.15
2023-05-21T06:06:43.261Z,4.13
2023-05-21T06:09:09.754Z,3.92
2023-05-21T06:11:36.266Z,6.60
2023-05-21T06:14:02.601Z,4.25
2023-05-21T06:16:31.354Z,7.22
2023-05-21T06:18:58.025Z,4.85
2023-05-21T06:21:24.439Z,5.35
2023-05-21T06:23:51.065Z,3.50
2023-05-21T06:26:19.182Z,4.60
2023-05-21T06:28:45.800Z,4.63
2023-05-21T06:31:12.112Z,6.30
2023-05-21T06:33:38.599Z,5.88
2023-05-21T06:36:05.116Z,4.57
2023-05-21T06:38:31.441Z,8.40
2023-05-21T06:40:58.558Z,7.93
2023-05-21T06:43:25.071Z,6.55
2023-05-21T06:45:51.461Z,7.78
2023-05-21T06:48:17.837Z,4.68
2023-05-21T06:50:44.203Z,5.20
2023-05-21T06:53:10.684Z,6.47
2023-05-21T06:55:37.438Z,4.32
2023-05-21T06:58:04.115Z,5.55
2023-05-21T07:00:30.601Z,3.97
2023-05-21T07:02:57.083Z,5.05
2023-05-21T07:05:23.713Z,6.85
2023-05-21T07:07:50.253Z,6.68
2023-05-21T07:10:16.706Z,4.50
2023-05-21T07:12:43.049Z,5.05
2023-05-21T07:15:09.704Z,4.30
2023-05-21T07:17:36.195Z,5.35
2023-05-21T07:20:02.693Z,4.35
2023-05-21T07:22:29.247Z,4.75
2023-05-21T07:24:55.738Z,7.72
2023-05-21T07:27:25.856Z,4.05
2023-05-21T07:29:52.616Z,3.95
2023-05-21T07:32:18.969Z,5.30
2023-05-21T07:34:45.334Z,4.38
2023-05-21T07:37:11.673Z,10.18
2023-05-21T07:39:37.984Z,4.57
2023-05-21T07:42:04.404Z,5.00
2023-05-21T07:44:31.881Z,6.00
2023-05-21T07:46:58.410Z,5.40
2023-05-21T07:49:24.732Z,6.95
2023-05-21T07:51:51.112Z,4.82
2023-05-21T07:54:17.560Z,6.65
2023-05-21T07:56:43.962Z,5.70
2023-05-21T07:59:11.685Z,3.88
2023-05-21T08:01:41.130Z,6.00
2023-05-21T08:04:07.893Z,9.70
2023-05-21T08:06:34.346Z,6.57
2023-05-21T08:09:01.834Z,5.25
2023-05-21T08:11:28.309Z,6.32
2023-05-21T08:13:54.786Z,6.82
2023-05-21T08:16:22.518Z,5.18
2023-05-21T08:18:49.272Z,5.47
2023-05-21T08:21:16.196Z,6.57
2023-05-21T08:23:42.745Z,5.15
2023-05-21T08:26:09.164Z,4.07
2023-05-21T08:28:37.803Z,6.75
2023-05-21T08:31:04.236Z,5.00
2023-05-21T08:33:30.618Z,5.50
2023-05-21T08:35:57.029Z,4.53
2023-05-21T08:38:23.404Z,6.53
2023-05-21T08:40:51.460Z,4.47
2023-05-21T08:43:17.820Z,4.82
2023-05-21T08:46:03.911Z,4.97
2023-05-21T08:48:31.146Z,4.95
2023-05-21T08:50:58.586Z,5.40
2023-05-21T08:53:28.702Z,5.85
2023-05-21T08:55:55.723Z,5.07
2023-05-21T08:58:22.387Z,6.20
2023-05-21T09:00:48.953Z,4.10
2023-05-21T09:03:15.982Z,4.25
2023-05-21T09:05:43.043Z,5.57
2023-05-21T09:08:12.651Z,6.47
2023-05-21T09:10:39.755Z,4.05
2023-05-21T09:13:07.826Z,4.75
2023-05-21T09:15:34.351Z,6.68
2023-05-21T09:18:01.277Z,5.78
2023-05-21T09:20:28.921Z,5.63
2023-05-21T09:22:55.675Z,4.72
2023-05-21T09:25:23.482Z,6.57
2023-05-21T09:27:49.850Z,4.53
2023-05-21T09:30:17.704Z,5.20
2023-05-21T09:32:44.927Z,4.63
2023-05-21T09:35:12.333Z,5.63
2023-05-21T09:37:39.508Z,4.55
2023-05-21T09:40:24.174Z,5.13
2023-05-21T09:42:54.172Z,6.00
2023-05-21T09:45:21.295Z,5.20
2023-05-21T09:47:48.400Z,7.88
2023-05-21T09:50:18.930Z,4.68
2023-05-21T09:52:45.464Z,4.75
2023-05-21T09:55:12.629Z,5.80
2023-05-21T09:57:43.008Z,4.95
2023-05-21T10:00:11.268Z,4.72
2023-05-21T10:02:39.347Z,4.22
2023-05-21T10:05:08.936Z,4.43
2023-05-21T10:07:36.031Z,5.28
2023-05-21T10:10:04.084Z,6.72
2023-05-21T10:12:30.738Z,5.22
2023-05-21T10:15:01.356Z,5.03
2023-05-21T10:17:28.321Z,5.00
2023-05-21T10:19:55.904Z,3.90
2023-05-21T10:22:25.254Z,6.00
2023-05-21T10:24:52.760Z,4.38
2023-05-21T10:27:19.556Z,5.97
2023-05-21T10:29:46.451Z,3.83
2023-05-21T10:32:14.999Z,4.15
2023-05-21T10:34:42.729Z,5.43
2023-05-21T10:37:10.085Z,5.47
2023-05-21T10:39:38.127Z,3.45
2023-05-21T10:42:24.694Z,5.55
2023-05-21T10:44:53.998Z,6.03
2023-05-21T10:47:21.878Z,4.60
2023-05-21T10:49:59.332Z,4.47
2023-05-21T10:52:51.843Z,4.32
2023-05-21T10:55:27.686Z,4.35
2023-05-21T10:58:15.868Z,4.15
2023-05-21T11:00:43.592Z,4.82
2023-05-21T11:03:12.480Z,6.60
2023-05-21T11:05:51.099Z,4.47
2023-05-21T11:08:31.766Z,4.97
2023-05-21T11:10:59.095Z,6.05
2023-05-21T11:13:26.443Z,5.20
2023-05-21T11:15:58.991Z,4.65
2023-05-21T11:18:37.820Z,4.40
2023-05-21T11:21:08.680Z,5.63
2023-05-21T11:23:53.429Z,5.22
2023-05-21T11:26:21.638Z,6.10
2023-05-21T11:28:51.399Z,5.22
2023-05-21T11:31:27.668Z,6.03
2023-05-21T11:34:13.927Z,6.10
2023-05-21T11:36:42.213Z,5.18
2023-05-21T11:39:09.968Z,5.70
2023-05-21T11:41:52.081Z,5.50
2023-05-21T11:44:18.377Z,4.93
2023-05-21T11:46:44.806Z,4.82
2023-05-21T11:49:11.886Z,6.13
2023-05-21T11:51:40.231Z,7.75
2023-05-21T11:54:08.943Z,6.25
2023-05-21T11:56:36.572Z,6.25
2023-05-21T11:59:02.894Z,6.47
2023-05-21T12:01:31.094Z,4.70
2023-05-21T12:03:57.468Z,6.97
2023-05-21T12:06:26.990Z,5.28
2023-05-21T12:08:58.108Z,6.30
2023-05-21T12:11:24.716Z,5.38
2023-05-21T12:13:51.247Z,8.63
2023-05-21T12:16:17.670Z,4.97
2023-05-21T12:18:44.561Z,4.88
2023-05-21T12:21:12.520Z,5.30
2023-05-21T12:23:39.040Z,5.60
2023-05-21T12:26:05.577Z,5.05
2023-05-21T12:28:32.028Z,6.88
2023-05-21T12:30:58.428Z,4.82
2023-05-21T12:33:26.056Z,6.70
2023-05-21T12:35:52.616Z,7.55
2023-05-21T12:38:19.142Z,6.15
2023-05-21T12:40:45.760Z,6.50
2023-05-21T12:43:12.344Z,7.88
2023-05-21T12:45:41.708Z,8.57
2023-05-21T12:48:08.361Z,6.00
2023-05-21T12:50:36.002Z,6.50
2023-05-21T12:53:02.727Z,9.38
2023-05-21T12:55:30.470Z,6.47
2023-05-21T12:58:01.784Z,5.28
2023-05-21T13:00:28.305Z,8.38
2023-05-21T13:02:56.446Z,5.68
2023-05-21T13:05:22.930Z,6.57
2023-05-21T13:07:51.510Z,5.82
2023-05-21T13:10:17.881Z,8.05
2023-05-21T13:12:45.255Z,6.35
2023-05-21T13:15:11.708Z,7.18
2023-05-21T13:17:38.007Z,3.63
2023-05-21T13:20:12.091Z,3.22
2023-05-21T13:22:42.149Z,4.78
2023-05-21T13:25:09.430Z,4.05
2023-05-21T13:27:35.831Z,4.78
2023-05-21T13:30:02.372Z,3.90
2023-05-21T13:32:28.755Z,3.92
2023-05-21T13:34:55.108Z,6.20
2023-05-21T13:37:21.466Z,5.30
2023-05-21T13:39:47.741Z,7.20
2023-05-21T13:42:14.436Z,6.85
2023-05-21T13:44:40.755Z,5.07
2023-05-21T13:47:07.285Z,3.83
2023-05-21T13:49:33.931Z,4.32
2023-05-21T13:52:00.878Z,5.47
2023-05-21T13:54:27.949Z,6.60
2023-05-21T13:56:54.307Z,6.45
2023-05-21T13:59:20.969Z,5.90
2023-05-21T14:01:48.055Z,4.97
2023-05-21T14:04:14.391Z,6.28
2023-05-21T14:06:41.183Z,5.18
2023-05-21T14:09:07.641Z,3.90
2023-05-21T14:11:34.281Z,3.00
2023-05-21T14:14:00.813Z,3.50
2023-05-21T14:16:29.625Z,3.00
2023-05-21T14:18:59.137Z,5.40
2023-05-21T14:21:26.030Z,3.45
2023-05-21T14:23:52.395Z,4.50
2023-05-21T14:26:19.133Z,3.95
2023-05-21T14:28:45.526Z,4.25
2023-05-21T14:31:12.006Z,7.38
2023-05-21T14:33:38.587Z,6.07
2023-05-21T14:36:05.229Z,6.22
2023-05-21T14:38:31.671Z,4.88
2023-05-21T14:40:58.063Z,3.25
2023-05-21T14:43:24.522Z,3.85
2023-05-21T14:45:50.878Z,4.03
2023-05-21T14:48:18.488Z,6.43
2023-05-21T14:50:45.069Z,3.85
2023-05-21T14:53:12.040Z,4.88
2023-05-21T14:55:38.945Z,5.45
2023-05-21T14:58:05.924Z,5.20
2023-05-21T15:00:32.493Z,4.10
2023-05-21T15:02:58.902Z,5.82
2023-05-21T15:05:25.778Z,3.70
2023-05-21T15:07:52.170Z,6.57
2023-05-21T15:10:18.848Z,5.93
2023-05-21T15:12:45.211Z,6.72
2023-05-21T15:15:12.341Z,5.90
2023-05-21T15:17:39.029Z,4.22
2023-05-21T15:20:06.153Z,3.83
2023-05-21T15:22:32.761Z,5.75
2023-05-21T15:24:59.252Z,8.05
2023-05-21T15:27:26.059Z,6.07
2023-05-21T15:29:52.404Z,7.07
2023-05-21T15:32:20.881Z,4.72
2023-05-21T15:34:47.911Z,7.65
2023-05-21T15:37:17.042Z,4.50
2023-05-21T15:39:43.778Z,5.65
2023-05-21T15:42:11.637Z,3.50
2023-05-21T15:44:38.361Z,5.22
2023-05-21T15:47:04.899Z,4.05
2023-05-21T15:49:31.216Z,5.13
2023-05-21T15:51:58.077Z,4.65
2023-05-21T15:54:24.484Z,6.28
2023-05-21T15:56:51.109Z,5.47
2023-05-21T15:59:17.416Z,5.50
2023-05-21T16:01:43.740Z,5.07
2023-05-21T16:04:10.148Z,4.80
2023-05-21T16:06:36.598Z,4.78
2023-05-21T16:09:03.101Z,4.95
2023-05-21T16:11:29.553Z,3.90
2023-05-21T16:13:56.108Z,6.13
2023-05-21T16:16:24.485Z,4.80
2023-05-21T16:18:51.175Z,4.78
2023-05-21T16:21:17.629Z,7.63
2023-05-21T16:23:44.013Z,12.30
2023-05-21T16:26:10.505Z,5.63
2023-05-21T16:28:37.557Z,4.68
2023-05-21T16:31:04.567Z,3.60
2023-05-21T16:33:30.932Z,3.65
2023-05-21T16:35:57.560Z,5.75
2023-05-21T16:38:24.026Z,5.45
2023-05-21T16:40:50.472Z,5.45
2023-05-21T16:43:16.813Z,4.03
2023-05-21T16:45:44.083Z,5.55
2023-05-21T16:48:12.912Z,5.55
2023-05-21T16:50:40.008Z,4.35
2023-05-21T16:53:07.581Z,5.75
2023-05-21T16:55:35.249Z,7.25
2023-05-21T16:58:02.259Z,4.68
2023-05-21T17:00:28.906Z,7.10
2023-05-21T17:02:55.669Z,4.65
2023-05-21T17:05:22.768Z,5.05
2023-05-21T17:07:49.312Z,5.93
2023-05-21T17:10:15.904Z,5.45
2023-05-21T17:12:42.220Z,6.75
2023-05-21T17:15:08.798Z,6.10
2023-05-21T17:17:35.219Z,8.02
2023-05-21T17:20:02.210Z,5.07
2023-05-21T17:22:28.681Z,8.77
2023-05-21T17:24:55.012Z,6.90
2023-05-21T17:27:21.347Z,6.28
2023-05-21T17:29:47.721Z,10.05
2023-05-21T17:32:14.096Z,6.60
2023-05-21T17:34:40.609Z,5.15
2023-05-21T17:37:06.917Z,9.60
2023-05-21T17:39:33.207Z,7.07
2023-05-21T17:41:59.538Z,12.85
2023-05-21T17:44:25.846Z,6.68
2023-05-21T17:46:52.188Z,7.13
2023-05-21T17:49:18.714Z,5.50
2023-05-21T17:51:45.263Z,8.32
2023-05-21T17:54:11.594Z,7.68
2023-05-21T17:56:40.952Z,8.10
2023-05-21T17:59:08.152Z,6.80
2023-05-21T18:01:35.228Z,8.20
2023-05-21T18:04:02.642Z,10.82
2023-05-21T18:06:29.284Z,8.80
2023-05-21T18:08:55.672Z,7.50
2023-05-21T18:11:22.338Z,8.02
2023-05-21T18:13:49.391Z,9.00
2023-05-21T18:16:15.900Z,5.88
2023-05-21T18:18:42.845Z,7.88
2023-05-21T18:21:09.755Z,10.52
2023-05-21T18:23:36.130Z,7.55
2023-05-21T18:26:02.668Z,7.88
2023-05-21T18:28:31.697Z,8.77
2023-05-21T18:31:00.866Z,9.63
2023-05-21T18:33:27.495Z,9.82
2023-05-21T18:35:54.224Z,9.73
2023-05-21T18:38:21.064Z,10.82
2023-05-21T18:40:47.516Z,11.32
2023-05-21T18:43:14.210Z,9.63
2023-05-21T18:45:40.574Z,8.95
2023-05-21T18:48:06.940Z,8.00
2023-05-21T18:50:34.927Z,11.45
2023-05-21T18:53:01.503Z,10.00
2023-05-21T18:55:27.887Z,13.15
2023-05-21T18:57:54.667Z,12.75
2023-05-21T19:00:21.201Z,14.27
2023-05-21T19:02:47.575Z,10.45
2023-05-21T19:05:14.259Z,11.50
2023-05-21T19:07:43.434Z,16.45
2023-05-21T19:10:11.156Z,18.38
2023-05-21T19:12:39.355Z,18.08
2023-05-21T19:15:06.614Z,11.68
2023-05-21T19:17:35.007Z,15.38
2023-05-21T19:20:01.615Z,11.65
2023-05-21T19:22:28.237Z,15.80
2023-05-21T19:24:54.651Z,15.88
2023-05-21T19:27:21.176Z,18.90
2023-05-21T19:29:47.576Z,16.27
2023-05-21T19:32:14.583Z,13.02
2023-05-21T19:34:41.085Z,13.90
2023-05-21T19:37:07.502Z,13.23
2023-05-21T19:39:37.429Z,12.13
2023-05-21T19:42:03.755Z,12.60
2023-05-21T19:44:30.139Z,11.38
2023-05-21T19:46:56.610Z,12.73
2023-05-21T19:49:22.957Z,14.48
2023-05-21T19:51:49.692Z,11.00
2023-05-21T19:54:16.140Z,10.18
2023-05-21T19:56:42.519Z,16.30
2023-05-21T19:59:08.881Z,9.60
2023-05-21T20:01:39.358Z,10.57
2023-05-21T20:04:06.715Z,10.50
2023-05-21T20:06:33.132Z,13.55
2023-05-21T20:08:59.597Z,10.32
2023-05-21T20:11:26.013Z,10.60
2023-05-21T20:13:53.164Z,15.13
2023-05-21T20:16:20.064Z,18.27
2023-05-21T20:18:49.233Z,11.75
2023-05-21T20:21:18.706Z,12.65
2023-05-21T20:23:45.561Z,14.85
2023-05-21T20:26:12.188Z,11.45
2023-05-21T20:28:38.580Z,9.68
2023-05-21T20:31:04.964Z,8.68
2023-05-21T20:33:32.191Z,14.60
2023-05-21T20:35:59.125Z,11.27
2023-05-21T20:38:26.105Z,10.68
2023-05-21T20:40:52.803Z,10.50
2023-05-21T20:43:19.923Z,10.05
2023-05-21T20:45:48.009Z,8.88
2023-05-21T20:48:15.870Z,12.02
2023-05-21T20:50:44.087Z,14.57
2023-05-21T20:53:11.996Z,14.65
2023-05-21T20:55:38.303Z,12.43
2023-05-21T20:58:05.062Z,14.38
2023-05-21T21:00:31.856Z,10.00
2023-05-21T21:03:00.713Z,10.85
2023-05-21T21:05:27.831Z,14.07
2023-05-21T21:07:55.964Z,12.48
2023-05-21T21:10:22.571Z,11.80
2023-05-21T21:12:49.043Z,13.05
2023-05-21T21:15:15.447Z,14.63
2023-05-21T21:17:41.805Z,9.52
2023-05-21T21:20:09.652Z,13.90
2023-05-21T21:22:36.009Z,13.50
2023-05-21T21:25:02.407Z,11.70
2023-05-21T21:27:28.810Z,11.45
2023-05-21T21:29:55.142Z,10.80
2023-05-21T21:32:21.558Z,12.25
2023-05-21T21:34:47.925Z,15.85
2023-05-21T21:37:14.269Z,15.88
2023-05-21T21:39:40.725Z,14.20
2023-05-21T21:42:07.044Z,13.70
2023-05-21T21:44:33.511Z,13.80
2023-05-21T21:46:59.940Z,18.85
2023-05-21T21:49:26.272Z,15.73
2023-05-21T21:51:57.713Z,12.57
2023-05-21T21:54:24.448Z,13.75
2023-05-21T21:56:50.761Z,13.88
2023-05-21T21:59:17.155Z,17.45
2023-05-21T22:01:43.543Z,12.45
2023-05-21T22:04:11.150Z,11.25
2023-05-21T22:06:38.959Z,10.93
2023-05-21T22:09:05.825Z,15.10
2023-05-21T22:11:32.378Z,11.63
2023-05-21T22:14:00.343Z,12.15
2023-05-21T22:16:28.013Z,16.10
2023-05-21T22:18:54.599Z,16.20
2023-05-21T22:21:21.546Z,10.25
2023-05-21T22:23:47.886Z,14.38
2023-05-21T22:26:14.240Z,15.93
2023-05-21T22:28:40.638Z,16.13
2023-05-21T22:31:07.558Z,15.60
2023-05-21T22:33:33.946Z,15.02
2023-05-21T22:36:00.589Z,16.35
2023-05-21T22:38:26.892Z,16.42
2023-05-21T22:40:53.291Z,17.50
2023-05-21T22:43:19.876Z,13.07
2023-05-21T22:45:46.332Z,12.55
2023-05-21T22:48:12.827Z,14.75
2023-05-21T22:50:39.487Z,21.50
2023-05-21T22:53:06.456Z,15.65
2023-05-21T22:55:32.834Z,15.43
2023-05-21T22:57:59.172Z,14.32
2023-05-21T23:00:26.074Z,14.90
2023-05-21T23:02:54.290Z,13.52
2023-05-21T23:05:21.236Z,15.07
2023-05-21T23:07:47.714Z,16.42
2023-05-21T23:10:14.101Z,16.42
2023-05-21T23:12:40.894Z,22.60
2023-05-21T23:15:07.489Z,16.17
2023-05-21T23:17:33.875Z,13.55
2023-05-21T23:20:00.426Z,16.00
2023-05-21T23:22:26.770Z,13.43
2023-05-21T23:24:54.122Z,15.05
2023-05-21T23:27:20.499Z,17.85
2023-05-21T23:29:46.791Z,14.32
2023-05-21T23:32:13.229Z,12.85
2023-05-21T23:34:39.556Z,10.88
2023-05-21T23:37:05.900Z,13.13
2023-05-21T23:39:32.231Z,12.95
2023-05-21T23:41:59.225Z,15.15
2023-05-21T23:44:25.797Z,16.67
2023-05-21T23:46:52.225Z,15.43
2023-05-21T23:49:18.557Z,37.67
2023-05-21T23:51:46.620Z,40.78
2023-05-21T23:54:12.989Z,27.30
2023-05-21T23:56:39.339Z,29.63
2023-05-21T23:59:05.613Z,16.10
